aviador You're here:

KARA Decoded Metar

LOUISIANA in LA, USA
Report Time2017-08-23 01:53:00
UTC Time2017-08-23 02:13:31
Flight Rules vfr VFR
WindCalm
Visibility9999 m
Phenomena:N/A
Clouds:N/A
Expected CloudBase > 800 ft AGL from Temp-Dew spread
CeilingNone
Temp24°C (ISA +9)
Dew Point22°C (89% RH)
QNH1016 hPa
Density Alt1,365 ft
Elevation59 ft
Report Wrong Elevation
Raw Report
KARA 230153Z 00000KT 10SM CLR 24/22 A3000 RMK AO2 SLP158
T02440217=

Extra information for KARA:More info

Metar Taf Metar & Taf Last 4 Metars F.Rules Stats Wind Profile Meteogram Temp Stats Airport Information Weather charts Add Link Nearby VenuesMetar ALERT Operation Metar Decoded Social comments

AIRNAV info for KARA